Aviation Digital Data Service (ADDS)

Output produced by METARs form (0751 UTC 20 March 2019)
found at http://www.aviationweather.gov/metar/data/
 
Forecast for: LEZG (ZARAGOZA (MIL/CI, ES)
Text: TAF LEZG 200500Z 2006/2106 30012KT 9999 FEW040 TX17/2014Z TN05/2006Z
Forecast period: 0600 to 2300 UTC 20 March 2019
Forecast type: FROM: standard forecast or significant change
Winds: from the WNW (300 degrees) at 14 MPH (12 knots; 6.2 m/s)
Visibility: 6 or more miles 10+ km)
Ceiling: at least 12,000 feet AGL
Clouds: few clouds at 4000 feet AGL
Weather: no significant weather forecast for this period
Text: TEMPO 2012/2018 VRB03KT
Forecast period: 1200 to 1800 UTC 20 March 2019
Forecast type: TEMPORARY: The following changes expected for less than half the time period
Winds: variable direction winds at 3 MPH (3 knots; 1.5 m/s)
Visibility: missing
Ceiling: unknown
Clouds: missing
Weather: no significant weather forecast for this period
Text: BECMG 2023/2101 28008KT
Forecast period: 2300 UTC 20 March 2019 to 0600 UTC 21 March 2019
Forecast type: BECOMING: Conditions expected to become as follows by 0100 UTC 21 March 2019
Winds: from the W (280 degrees) at 9 MPH (8 knots; 4.1 m/s)
Visibility: 6 or more miles 10+ km)
Ceiling: at least 12,000 feet AGL
Clouds: few clouds at 4000 feet AGL
Weather: no significant weather forecast for this period